EDAH

Heringsdorf Airport

Heringsdorf, Germany
METAR EDAH 171520Z 30004KT 270V340 9999 FEW006 SCT015 01/00 Q1019
Observed Flight Rules
Dec-17 @ 15:20 UTC (12 hours ago) Visual Flight Rules
Wind Visibility Clouds
300° at 4 knots 10,000+ meters
  • Few at 600' AGL
  • Scattered at 1,500' AGL
Temperatures Readings
Current 1°C / 34°F
Dewpoint 0°C / 32°F
Humidity 93%
Altimeter 30.09" Hg
Pressure 1019 hPa
Elevation 28
METAR EDAH 171520Z 30004KT 270V340 9999 FEW006 SCT015 01/00 Q1019
Observed Flight Rules
Dec-17 @ 15:20 UTC
(12 hours ago)
VFR
Wind Visibility
300° at 4 knots 10,000+ meters
Clouds
  • Few at 600' AGL
  • Scattered at 1,500' AGL
Temperature Dewpoint
1°C / 34°F 0°C / 32°F
Humidity Altimeter Pressure
93% 30.09" Hg 1019 hPa